Time;durP1;ratioP1;P1;durP2;ratioP2;P2;SDS_P1;SDS_P2;PMS_P1;PMS_P2;Temp;Humidity;BMP_temperature;BMP_pressure;BME280_temperature;BME280_humidity;BME280_pressure;Samples;Min_cycle;Max_cycle;Signal;HPM_P1;HPM_P2
2022/10/21 00:02:27;;;;;;;5.43;4.93;;;16.70;40.80;;;;;;10381031;28;20237;-73
2022/10/21 00:07:30;;;;;;;6.00;5.50;;;16.70;41.00;;;;;;10377203;28;20236;-73
2022/10/21 00:12:33;;;;;;;6.43;5.70;;;16.60;40.80;;;;;;10374543;28;20579;-73
2022/10/21 00:17:43;;;;;;;6.83;6.23;;;16.60;41.00;;;;;;10380659;28;20236;-73
2022/10/21 00:22:46;;;;;;;6.27;5.77;;;16.60;41.00;;;;;;10375903;28;20230;-72
2022/10/21 00:27:49;;;;;;;6.30;5.70;;;16.50;40.90;;;;;;10379193;28;20728;-73
2022/10/21 00:32:53;;;;;;;6.70;6.07;;;16.40;41.00;;;;;;10377983;28;20230;-73
2022/10/21 00:38:02;;;;;;;8.20;6.30;;;16.30;41.20;;;;;;10377850;28;20238;-72
2022/10/21 00:43:05;;;;;;;7.57;6.53;;;16.20;41.20;;;;;;10373335;28;20721;-72
2022/10/21 00:48:18;;;;;;;7.43;6.83;;;16.20;41.40;;;;;;10377976;28;20234;-73
2022/10/21 00:53:22;;;;;;;7.03;6.33;;;16.20;41.80;;;;;;10373620;28;20595;-73
2022/10/21 00:58:29;;;;;;;9.27;6.47;;;16.10;41.70;;;;;;10375687;28;20642;-73
2022/10/21 01:03:35;;;;;;;7.37;6.67;;;16.10;41.90;;;;;;10373865;28;20798;-73
2022/10/21 01:08:41;;;;;;;8.83;6.57;;;16.10;42.00;;;;;;10373029;28;20226;-73
2022/10/21 01:13:59;;;;;;;6.90;6.40;;;16.10;41.80;;;;;;10372962;28;20257;-73
2022/10/21 01:19:22;;;;;;;6.83;6.33;;;16.10;42.00;;;;;;10379626;28;20229;-73
2022/10/21 01:24:50;;;;;;;7.27;6.67;;;16.10;42.10;;;;;;10370211;28;20505;-73
2022/10/21 01:30:31;;;;;;;6.90;6.30;;;16.10;42.00;;;;;;10377157;28;20607;-73
2022/10/21 01:35:43;;;;;;;8.07;7.37;;;16.20;42.10;;;;;;10375184;28;20222;-73
2022/10/21 01:40:54;;;;;;;8.03;7.23;;;16.20;42.00;;;;;;10375656;28;20234;-73
2022/10/21 01:46:02;;;;;;;6.83;6.27;;;16.30;41.90;;;;;;10376975;28;20603;-73
2022/10/21 01:51:07;;;;;;;7.03;6.47;;;16.30;41.70;;;;;;10379353;28;20230;-72
2022/10/21 01:56:15;;;;;;;7.43;6.80;;;16.30;41.70;;;;;;10373684;28;20221;-73
2022/10/21 02:01:31;;;;;;;7.17;6.47;;;16.30;41.80;;;;;;10370952;28;20233;-73
2022/10/21 02:06:34;;;;;;;8.17;7.33;;;16.30;42.10;;;;;;10376068;28;20638;-73
2022/10/21 02:11:41;;;;;;;7.63;6.80;;;16.40;41.90;;;;;;10371771;28;20249;-73
2022/10/21 02:16:47;;;;;;;8.93;6.87;;;16.40;42.20;;;;;;10374362;28;20222;-73
2022/10/21 02:21:53;;;;;;;7.50;6.80;;;16.50;42.10;;;;;;10371690;28;20232;-73
2022/10/21 02:26:56;;;;;;;7.33;6.60;;;16.50;42.10;;;;;;10373120;28;20755;-73
2022/10/21 02:32:18;;;;;;;6.77;6.17;;;16.50;41.90;;;;;;10371540;28;20226;-73
2022/10/21 02:37:27;;;;;;;6.63;6.03;;;16.60;42.30;;;;;;10360378;28;20292;-73
2022/10/21 02:42:35;;;;;;;6.53;5.90;;;16.60;42.20;;;;;;10376522;28;20233;-73
2022/10/21 02:47:46;;;;;;;7.43;6.40;;;16.60;42.20;;;;;;10369776;28;20276;-73
2022/10/21 02:52:51;;;;;;;6.93;6.33;;;16.60;42.20;;;;;;10371984;28;20486;-73
2022/10/21 02:57:54;;;;;;;7.43;5.93;;;16.60;41.90;;;;;;10373675;28;20230;-73
2022/10/21 03:02:59;;;;;;;7.03;6.50;;;16.60;41.90;;;;;;10386625;28;20229;-72
2022/10/21 03:08:04;;;;;;;6.67;6.07;;;16.60;42.00;;;;;;10379568;28;20221;-72
2022/10/21 03:13:07;;;;;;;7.00;6.40;;;16.60;41.90;;;;;;10408628;23;20324;-72
2022/10/21 03:18:11;;;;;;;6.53;5.93;;;16.60;42.00;;;;;;10405960;28;20240;-72
2022/10/21 03:23:14;;;;;;;6.97;6.27;;;16.60;42.20;;;;;;10405329;28;20236;-72
2022/10/21 03:28:17;;;;;;;8.00;7.13;;;16.60;42.00;;;;;;10405009;28;20230;-73
2022/10/21 03:33:22;;;;;;;7.20;6.40;;;16.60;42.10;;;;;;10405477;28;20250;-72
2022/10/21 03:38:25;;;;;;;7.17;6.57;;;16.50;42.30;;;;;;10404627;28;20264;-72
2022/10/21 03:43:28;;;;;;;6.97;6.37;;;16.50;42.20;;;;;;10404823;28;20271;-72
2022/10/21 03:48:33;;;;;;;7.10;6.50;;;16.50;42.10;;;;;;10404267;28;20237;-72
2022/10/21 03:53:36;;;;;;;7.33;6.67;;;16.50;42.40;;;;;;10404046;28;20608;-73
2022/10/21 03:58:45;;;;;;;7.10;6.50;;;16.50;42.30;;;;;;10404378;28;20229;-73
2022/10/21 04:03:49;;;;;;;6.90;6.20;;;16.50;42.40;;;;;;10403431;28;20229;-72
2022/10/21 04:08:53;;;;;;;6.80;6.30;;;16.40;42.40;;;;;;10403131;28;20287;-72
2022/10/21 04:13:56;;;;;;;6.63;6.13;;;16.50;42.50;;;;;;10403054;28;20236;-72
2022/10/21 04:19:01;;;;;;;7.53;6.73;;;16.40;42.30;;;;;;10402219;28;20703;-73
2022/10/21 04:24:04;;;;;;;6.70;6.07;;;16.40;42.70;;;;;;10401828;28;20268;-73
2022/10/21 04:29:07;;;;;;;6.93;6.33;;;16.40;42.40;;;;;;10402348;28;20287;-73
2022/10/21 04:34:13;;;;;;;6.73;6.17;;;16.40;42.40;;;;;;10402282;28;20291;-73
2022/10/21 04:39:16;;;;;;;6.63;6.03;;;16.40;42.80;;;;;;10402918;28;20303;-73
2022/10/21 04:44:19;;;;;;;10.40;6.13;;;16.40;42.60;;;;;;10393872;28;20226;-73
2022/10/21 04:49:24;;;;;;;6.63;6.13;;;16.30;42.40;;;;;;10407167;28;20230;-72
2022/10/21 04:54:27;;;;;;;6.40;5.80;;;16.30;42.60;;;;;;10399022;28;20233;-72
2022/10/21 04:59:30;;;;;;;6.30;5.70;;;16.30;42.40;;;;;;10409309;28;20230;-72
2022/10/21 05:04:34;;;;;;;6.50;6.00;;;16.30;42.40;;;;;;10412987;28;20352;-72
2022/10/21 05:09:37;;;;;;;7.13;6.43;;;16.20;42.40;;;;;;10420968;28;20232;-72
2022/10/21 05:14:40;;;;;;;7.23;6.60;;;16.20;42.10;;;;;;10411783;28;20240;-72
2022/10/21 05:19:45;;;;;;;7.67;7.07;;;16.20;42.20;;;;;;10401822;28;20225;-72
2022/10/21 05:24:48;;;;;;;7.97;7.17;;;16.10;42.40;;;;;;10398098;28;20226;-72
2022/10/21 05:29:51;;;;;;;8.80;8.00;;;16.10;43.10;;;;;;10406768;28;20226;-73
2022/10/21 05:34:56;;;;;;;8.43;7.63;;;16.10;43.60;;;;;;10406161;28;20253;-72
2022/10/21 05:39:59;;;;;;;8.33;7.47;;;16.10;43.00;;;;;;10407547;28;20230;-73
2022/10/21 05:45:02;;;;;;;7.57;6.87;;;16.10;42.70;;;;;;10407560;28;20230;-73
2022/10/21 05:50:08;;;;;;;7.90;7.20;;;16.10;42.70;;;;;;10407405;28;20221;-73
2022/10/21 05:55:11;;;;;;;7.37;6.70;;;16.10;43.60;;;;;;10407141;28;20242;-73
2022/10/21 06:00:14;;;;;;;6.90;6.40;;;16.10;42.70;;;;;;10406439;28;20280;-72
2022/10/21 06:05:19;;;;;;;7.23;6.57;;;16.10;42.70;;;;;;10406137;28;20241;-72
2022/10/21 06:10:22;;;;;;;7.67;6.93;;;16.10;43.00;;;;;;10410173;28;20230;-73
2022/10/21 06:15:31;;;;;;;7.13;6.43;;;16.10;42.90;;;;;;10397573;28;20252;-72
2022/10/21 06:20:35;;;;;;;7.73;6.93;;;16.10;42.90;;;;;;10405636;28;20280;-72
2022/10/21 06:25:39;;;;;;;7.10;6.50;;;16.00;43.00;;;;;;10393662;28;20758;-71
2022/10/21 06:30:42;;;;;;;7.17;6.47;;;16.00;42.80;;;;;;10405519;28;20312;-70
2022/10/21 06:35:47;;;;;;;8.47;6.80;;;16.00;42.90;;;;;;10395040;28;20229;-70
2022/10/21 06:40:50;;;;;;;7.13;6.53;;;16.00;43.30;;;;;;10408608;28;20252;-71
2022/10/21 06:45:53;;;;;;;8.17;7.37;;;15.90;43.10;;;;;;10405400;28;20229;-71
2022/10/21 06:50:59;;;;;;;7.43;6.27;;;15.90;43.20;;;;;;10404877;28;20769;-70
2022/10/21 06:56:03;;;;;;;7.37;6.50;;;15.90;43.70;;;;;;10396224;28;20687;-70
2022/10/21 07:01:08;;;;;;;7.20;6.60;;;15.90;43.50;;;;;;10405202;28;20230;-70
2022/10/21 07:06:31;;;;;;;7.37;6.77;;;15.90;43.70;;;;;;10402955;28;20225;-70
2022/10/21 07:11:35;;;;;;;7.93;7.13;;;15.90;44.10;;;;;;10400186;28;20237;-70
2022/10/21 07:16:38;;;;;;;8.47;7.77;;;15.80;43.80;;;;;;10398510;28;20230;-70
2022/10/21 07:21:43;;;;;;;10.53;7.63;;;15.80;43.90;;;;;;10405235;28;20225;-70
2022/10/21 07:26:46;;;;;;;8.90;8.07;;;15.90;44.20;;;;;;10406183;28;20230;-72
2022/10/21 07:31:49;;;;;;;9.47;7.97;;;15.90;44.00;;;;;;10402702;28;20226;-70
2022/10/21 07:36:54;;;;;;;9.77;8.77;;;15.90;44.20;;;;;;10397060;28;20230;-71
2022/10/21 07:41:58;;;;;;;8.73;8.03;;;15.90;44.60;;;;;;10403835;28;20803;-70
2022/10/21 07:47:01;;;;;;;9.07;8.17;;;15.90;44.30;;;;;;10403925;28;20284;-70
2022/10/21 07:52:06;;;;;;;9.70;8.80;;;16.00;44.40;;;;;;10407763;28;20225;-70
2022/10/21 07:57:09;;;;;;;9.37;8.67;;;16.00;44.80;;;;;;10404885;28;20230;-70
2022/10/21 08:02:14;;;;;;;9.80;8.80;;;16.00;44.40;;;;;;10405364;28;21137;-70
2022/10/21 08:07:18;;;;;;;10.67;9.43;;;16.10;45.30;;;;;;10397730;28;20648;-70
2022/10/21 08:12:21;;;;;;;10.83;9.43;;;16.10;45.30;;;;;;10412143;28;20228;-71
2022/10/21 08:17:24;;;;;;;9.83;8.93;;;16.20;44.80;;;;;;10418679;28;20228;-70
2022/10/21 08:22:29;;;;;;;10.30;9.30;;;16.30;45.00;;;;;;10415745;28;20232;-70
2022/10/21 08:27:33;;;;;;;11.03;9.53;;;16.30;45.50;;;;;;10400232;28;20234;-70
2022/10/21 08:32:36;;;;;;;10.03;9.13;;;16.40;44.90;;;;;;10407180;28;20237;-70
2022/10/21 08:37:41;;;;;;;9.13;8.23;;;16.40;44.90;;;;;;10393431;28;20257;-70
2022/10/21 08:42:45;;;;;;;9.47;8.77;;;16.50;45.40;;;;;;10408754;28;20713;-70
2022/10/21 08:47:53;;;;;;;10.30;8.83;;;16.60;45.10;;;;;;10405364;28;20225;-70
2022/10/21 08:53:04;;;;;;;9.57;8.63;;;16.70;45.50;;;;;;10406612;28;20280;-70
2022/10/21 08:58:13;;;;;;;9.33;8.53;;;16.70;46.40;;;;;;10410807;28;20233;-71
2022/10/21 09:03:27;;;;;;;9.83;8.30;;;16.80;45.90;;;;;;10405637;28;20312;-70
2022/10/21 09:08:38;;;;;;;9.43;8.43;;;16.90;46.00;;;;;;10409500;28;20656;-71
2022/10/21 09:14:20;;;;;;;10.20;8.07;;;17.00;46.00;;;;;;10413552;28;20281;-70
2022/10/21 09:19:34;;;;;;;9.03;8.23;;;17.00;45.90;;;;;;10382615;28;20251;-71
2022/10/21 09:24:47;;;;;;;9.27;8.27;;;17.10;45.60;;;;;;10396686;28;20674;-71
2022/10/21 09:29:54;;;;;;;10.00;8.13;;;17.10;45.50;;;;;;10405938;28;20229;-71
2022/10/21 09:35:02;;;;;;;10.27;8.00;;;17.10;45.00;;;;;;10405965;28;20287;-70
2022/10/21 09:40:17;;;;;;;7.10;6.50;;;17.10;45.20;;;;;;10407116;28;20236;-71
2022/10/21 09:45:25;;;;;;;7.07;6.47;;;17.10;45.50;;;;;;10403247;28;20233;-71
2022/10/21 09:50:29;;;;;;;7.43;6.73;;;17.10;45.40;;;;;;10418357;28;20268;-71
2022/10/21 09:55:36;;;;;;;9.23;5.97;;;17.10;45.10;;;;;;10406320;28;20232;-70
2022/10/21 10:00:47;;;;;;;6.80;6.10;;;17.20;45.40;;;;;;10415427;28;20221;-71
2022/10/21 10:05:50;;;;;;;5.70;5.20;;;17.20;46.10;;;;;;10400119;28;20229;-72
2022/10/21 10:11:02;;;;;;;6.60;6.10;;;17.20;45.20;;;;;;10389913;28;20237;-71
2022/10/21 10:16:15;;;;;;;7.43;6.20;;;17.30;46.00;;;;;;10386139;28;20276;-72
2022/10/21 10:21:19;;;;;;;6.63;6.07;;;17.40;45.50;;;;;;10386031;28;20261;-72
2022/10/21 10:26:30;;;;;;;6.90;6.23;;;17.50;45.30;;;;;;10382417;28;20233;-72
2022/10/21 10:31:35;;;;;;;7.67;6.97;;;17.50;45.60;;;;;;10379937;28;20234;-73
2022/10/21 10:36:40;;;;;;;8.30;7.00;;;17.60;44.90;;;;;;10382413;28;20888;-72
2022/10/21 10:41:49;;;;;;;7.93;7.17;;;17.50;45.00;;;;;;10391762;28;20221;-72
2022/10/21 10:46:55;;;;;;;7.70;6.97;;;17.50;45.00;;;;;;10394744;28;20237;-72
2022/10/21 10:52:14;;;;;;;8.57;7.20;;;17.60;45.20;;;;;;10403591;28;20581;-72
2022/10/21 10:57:23;;;;;;;7.70;7.10;;;17.60;45.40;;;;;;10398338;28;20232;-72
2022/10/21 11:02:54;;;;;;;8.40;7.80;;;17.60;45.00;;;;;;10402746;28;20714;-72
2022/10/21 11:08:01;;;;;;;10.60;7.97;;;17.70;45.00;;;;;;10394122;28;20225;-72
2022/10/21 11:13:11;;;;;;;7.73;6.93;;;17.70;45.10;;;;;;10399696;28;20574;-72
2022/10/21 11:18:18;;;;;;;8.53;6.80;;;17.80;45.20;;;;;;10400674;28;20339;-72
2022/10/21 11:24:05;;;;;;;7.53;6.87;;;18.00;45.20;;;;;;10401323;28;20252;-72
2022/10/21 11:29:24;;;;;;;7.83;7.13;;;18.10;45.30;;;;;;10399780;28;20233;-72
2022/10/21 11:34:40;;;;;;;8.60;7.80;;;18.20;44.90;;;;;;10406282;28;20577;-72
2022/10/21 11:39:48;;;;;;;8.93;7.97;;;18.30;45.10;;;;;;10401438;28;20224;-71
2022/10/21 11:45:06;;;;;;;9.07;7.87;;;18.30;44.90;;;;;;10403732;28;20225;-72
2022/10/21 11:50:20;;;;;;;8.57;7.77;;;18.30;45.00;;;;;;10408902;28;21024;-71
2022/10/21 11:55:38;;;;;;;9.27;8.37;;;18.30;45.30;;;;;;10408738;28;20229;-72
2022/10/21 12:00:52;;;;;;;8.73;8.03;;;18.30;46.00;;;;;;10404347;28;20225;-72
2022/10/21 12:06:01;;;;;;;9.87;7.67;;;18.30;46.30;;;;;;10409425;28;20715;-72
2022/10/21 12:11:09;;;;;;;7.97;7.20;;;18.40;46.90;;;;;;10413499;28;20283;-72
2022/10/21 12:16:18;;;;;;;7.67;7.07;;;18.40;46.20;;;;;;10409127;28;20234;-72
2022/10/21 12:21:25;;;;;;;8.73;7.93;;;18.50;46.10;;;;;;10402756;28;20232;-70
2022/10/21 12:26:35;;;;;;;9.33;8.47;;;18.60;46.20;;;;;;10430365;28;20229;-70
2022/10/21 12:31:47;;;;;;;10.17;9.00;;;18.60;46.20;;;;;;10390183;28;20241;-70
2022/10/21 12:36:53;;;;;;;10.30;9.30;;;18.60;46.20;;;;;;10405547;28;20352;-70
2022/10/21 12:42:05;;;;;;;10.87;9.83;;;18.50;46.00;;;;;;10408223;28;20229;-70
2022/10/21 12:47:25;;;;;;;10.40;9.50;;;18.50;46.90;;;;;;10408332;28;20639;-71
2022/10/21 12:52:29;;;;;;;10.60;9.13;;;18.50;47.30;;;;;;10408064;28;20276;-70
2022/10/21 12:57:35;;;;;;;9.70;8.90;;;18.50;46.60;;;;;;10383897;28;20289;-71
2022/10/21 13:02:59;;;;;;;9.33;8.53;;;18.50;47.30;;;;;;10407764;28;20226;-70
2022/10/21 13:08:26;;;;;;;11.50;10.40;;;18.50;47.40;;;;;;10407363;28;20726;-70
2022/10/21 13:13:34;;;;;;;9.07;8.13;;;18.60;47.50;;;;;;10407152;28;20260;-71
2022/10/21 13:18:59;;;;;;;10.07;9.07;;;18.60;47.70;;;;;;10407233;28;20241;-70
2022/10/21 13:24:22;;;;;;;8.33;6.97;;;18.60;47.60;;;;;;10406452;28;20225;-70
2022/10/21 13:29:45;;;;;;;7.40;6.70;;;18.70;47.70;;;;;;10406621;28;20601;-70
2022/10/21 13:34:59;;;;;;;7.07;6.40;;;18.80;48.10;;;;;;10398354;28;20229;-70
2022/10/21 13:40:05;;;;;;;6.73;6.13;;;18.90;48.40;;;;;;10406224;28;20221;-70
2022/10/21 13:45:24;;;;;;;6.60;6.00;;;19.00;47.90;;;;;;10403081;28;20609;-70
2022/10/21 13:50:32;;;;;;;6.67;5.97;;;19.10;48.00;;;;;;10405132;28;20244;-70
2022/10/21 13:55:35;;;;;;;8.07;5.30;;;19.20;48.00;;;;;;10394682;28;20233;-71
2022/10/21 14:00:38;;;;;;;4.97;4.47;;;19.30;48.10;;;;;;10378565;28;20281;-68
2022/10/21 14:05:48;;;;;;;5.70;5.20;;;19.30;48.10;;;;;;10372433;28;20716;-69
2022/10/21 14:10:52;;;;;;;5.97;5.30;;;19.40;48.20;;;;;;10381507;28;20404;-68
2022/10/21 14:15:56;;;;;;;6.50;5.37;;;19.50;48.10;;;;;;10373634;28;20230;-68
2022/10/21 14:21:01;;;;;;;5.43;4.93;;;19.60;47.90;;;;;;10378998;28;20229;-68
2022/10/21 14:26:07;;;;;;;5.90;5.30;;;19.60;47.90;;;;;;10377296;28;20233;-69
2022/10/21 14:31:12;;;;;;;7.10;5.83;;;19.70;47.70;;;;;;10378507;28;20311;-69
2022/10/21 14:36:21;;;;;;;9.47;5.60;;;19.70;47.90;;;;;;10373357;28;20249;-68
2022/10/21 14:41:28;;;;;;;7.17;5.80;;;19.70;48.50;;;;;;10382627;28;20299;-68
2022/10/21 14:46:39;;;;;;;7.20;6.50;;;19.70;48.20;;;;;;10373537;28;20233;-68
2022/10/21 14:51:43;;;;;;;10.07;7.00;;;19.60;47.80;;;;;;10379235;28;20225;-71
2022/10/21 14:56:47;;;;;;;8.13;7.33;;;19.60;48.40;;;;;;10376943;28;20238;-71
2022/10/21 15:01:50;;;;;;;9.63;7.37;;;19.60;48.00;;;;;;10375035;28;20791;-71
2022/10/21 15:07:01;;;;;;;9.30;7.07;;;19.60;48.30;;;;;;10373123;28;20237;-71
2022/10/21 15:12:18;;;;;;;7.00;6.30;;;19.50;48.40;;;;;;10374509;28;20226;-71
2022/10/21 15:17:24;;;;;;;6.90;5.80;;;19.50;48.50;;;;;;10372798;28;20610;-71
2022/10/21 15:22:32;;;;;;;6.83;6.13;;;19.40;48.20;;;;;;10375273;28;20233;-71
2022/10/21 15:27:40;;;;;;;6.97;6.37;;;19.40;48.20;;;;;;10374488;28;20237;-71
2022/10/21 15:32:45;;;;;;;6.87;6.17;;;19.40;48.80;;;;;;10375118;28;20828;-71
2022/10/21 15:37:50;;;;;;;7.37;5.93;;;19.40;48.20;;;;;;10372139;28;20245;-71
2022/10/21 15:42:54;;;;;;;8.20;6.03;;;19.40;48.40;;;;;;10374351;28;20593;-74
2022/10/21 15:47:57;;;;;;;7.63;5.77;;;19.40;48.20;;;;;;10376151;28;20234;-73
2022/10/21 15:53:02;;;;;;;7.47;5.33;;;19.40;48.20;;;;;;10380897;28;20238;-72
2022/10/21 15:58:05;;;;;;;6.50;5.87;;;19.40;48.60;;;;;;10373474;28;20304;-72
2022/10/21 16:03:08;;;;;;;6.37;5.77;;;19.40;48.20;;;;;;10374878;28;20230;-73
2022/10/21 16:08:13;;;;;;;5.97;5.40;;;19.40;48.20;;;;;;10382013;28;20233;-73
2022/10/21 16:13:16;;;;;;;6.40;5.23;;;19.40;48.60;;;;;;10382278;28;20276;-72
2022/10/21 16:18:19;;;;;;;6.80;5.03;;;19.40;48.20;;;;;;10380766;28;20221;-73
2022/10/21 16:23:24;;;;;;;5.17;4.53;;;19.40;48.20;;;;;;10376728;28;20600;-72
2022/10/21 16:28:27;;;;;;;8.00;6.43;;;19.40;48.20;;;;;;10379635;28;20264;-73
2022/10/21 16:33:30;;;;;;;5.13;4.63;;;19.40;48.20;;;;;;10376755;28;20230;-73
2022/10/21 16:38:35;;;;;;;6.67;6.07;;;19.40;48.20;;;;;;10383785;28;20230;-73
2022/10/21 16:43:39;;;;;;;5.03;4.30;;;19.30;48.10;;;;;;10379002;28;20222;-73
2022/10/21 16:48:43;;;;;;;4.93;4.47;;;19.30;48.80;;;;;;10379629;28;20305;-73
2022/10/21 16:53:47;;;;;;;5.40;4.57;;;19.30;48.10;;;;;;10374971;28;20218;-73
2022/10/21 16:58:51;;;;;;;7.73;6.50;;;19.20;48.00;;;;;;10381786;28;20225;-72
2022/10/21 17:03:54;;;;;;;6.97;6.37;;;19.20;48.00;;;;;;10378082;28;20230;-72
2022/10/21 17:08:59;;;;;;;6.43;4.90;;;19.20;48.10;;;;;;10381536;28;20225;-72
2022/10/21 17:14:04;;;;;;;7.77;4.50;;;19.20;48.00;;;;;;10377857;28;20218;-73
2022/10/21 17:19:07;;;;;;;5.90;4.80;;;19.20;48.00;;;;;;10382797;28;20230;-73
2022/10/21 17:24:14;;;;;;;4.97;4.50;;;19.20;48.70;;;;;;10382429;28;20242;-73
2022/10/21 17:29:17;;;;;;;6.60;5.13;;;19.20;48.00;;;;;;10384689;28;20238;-73
2022/10/21 17:34:26;;;;;;;6.53;5.00;;;19.10;47.90;;;;;;10377950;28;20229;-73
2022/10/21 17:39:31;;;;;;;5.87;4.37;;;19.10;48.30;;;;;;10380446;28;20234;-73
2022/10/21 17:44:34;;;;;;;5.20;4.70;;;19.10;48.00;;;;;;10361760;23;20744;-72
2022/10/21 17:49:37;;;;;;;5.40;4.87;;;19.10;47.90;;;;;;10304912;28;20278;-72
2022/10/21 17:54:42;;;;;;;4.40;3.97;;;19.10;47.90;;;;;;10296761;28;20232;-72
2022/10/21 17:59:49;;;;;;;4.90;4.50;;;19.10;47.90;;;;;;10297690;28;20277;-72
2022/10/21 18:04:52;;;;;;;5.33;4.93;;;19.10;47.90;;;;;;10293093;28;20664;-72
2022/10/21 18:09:56;;;;;;;7.27;5.30;;;19.10;47.90;;;;;;10297645;28;20255;-72
2022/10/21 18:14:59;;;;;;;7.17;6.47;;;19.20;48.00;;;;;;10290932;28;20234;-74
2022/10/21 18:20:03;;;;;;;7.30;4.97;;;19.20;48.00;;;;;;10291629;28;20223;-74
2022/10/21 18:25:08;;;;;;;4.73;4.27;;;19.20;48.00;;;;;;10290451;28;20740;-72
2022/10/21 18:30:12;;;;;;;5.43;4.93;;;19.10;47.90;;;;;;10289024;28;20223;-68
2022/10/21 18:35:15;;;;;;;5.60;5.00;;;19.10;47.90;;;;;;10294177;28;20704;-72
2022/10/21 18:40:20;;;;;;;5.27;4.83;;;19.10;47.90;;;;;;10291650;28;20577;-72
2022/10/21 18:45:23;;;;;;;7.33;5.53;;;19.10;47.60;;;;;;10291128;28;20227;-72
2022/10/21 18:50:26;;;;;;;6.20;5.70;;;19.10;47.40;;;;;;10280448;28;20231;-72
2022/10/21 18:55:31;;;;;;;6.17;5.57;;;19.10;47.50;;;;;;10288282;28;20238;-68
2022/10/21 19:00:34;;;;;;;5.93;5.43;;;19.00;47.90;;;;;;10288944;28;20230;-69
2022/10/21 19:05:40;;;;;;;5.63;5.13;;;19.00;47.70;;;;;;10285786;28;20234;-69
2022/10/21 19:10:46;;;;;;;7.00;5.10;;;19.00;47.60;;;;;;10287930;28;20231;-72
2022/10/21 19:15:49;;;;;;;5.80;5.30;;;19.00;47.50;;;;;;10283464;28;20255;-68
2022/10/21 19:20:54;;;;;;;5.30;4.80;;;18.90;47.10;;;;;;10285459;28;20227;-67
2022/10/21 19:26:02;;;;;;;6.07;4.73;;;18.90;47.70;;;;;;10287328;28;20294;-69
2022/10/21 19:31:06;;;;;;;4.77;4.37;;;18.90;47.80;;;;;;10287768;28;20792;-68
2022/10/21 19:36:10;;;;;;;7.70;5.73;;;18.80;47.30;;;;;;10283994;28;20630;-69
2022/10/21 19:41:17;;;;;;;5.60;5.03;;;18.80;47.70;;;;;;10285220;28;20238;-67
2022/10/21 19:46:22;;;;;;;5.30;4.80;;;18.80;47.70;;;;;;10298073;28;20298;-67
2022/10/21 19:51:28;;;;;;;6.90;5.87;;;18.80;47.70;;;;;;10295833;28;20250;-67
2022/10/21 19:56:32;;;;;;;9.80;8.13;;;18.80;47.70;;;;;;10292361;28;20234;-72
2022/10/21 20:01:36;;;;;;;8.33;7.40;;;18.80;47.60;;;;;;10293730;28;20231;-67
2022/10/21 20:06:39;;;;;;;8.17;7.37;;;18.80;47.20;;;;;;10324854;23;20225;-72
2022/10/21 20:11:44;;;;;;;5.97;5.47;;;18.80;47.40;;;;;;10354026;28;20723;-72
2022/10/21 20:16:49;;;;;;;6.37;5.63;;;18.70;47.60;;;;;;10356608;28;20740;-72
2022/10/21 20:21:52;;;;;;;5.77;4.63;;;18.60;47.50;;;;;;10344882;28;20226;-72
2022/10/21 20:26:57;;;;;;;5.77;4.83;;;18.60;47.50;;;;;;10349799;28;20268;-73
2022/10/21 20:32:04;;;;;;;5.30;4.80;;;18.60;47.50;;;;;;10343886;28;20221;-74
2022/10/21 20:37:07;;;;;;;5.10;4.60;;;18.60;47.40;;;;;;10349108;28;20223;-74
2022/10/21 20:42:12;;;;;;;5.07;4.37;;;18.50;47.40;;;;;;10342977;28;20225;-73
2022/10/21 20:47:15;;;;;;;4.67;4.00;;;18.50;47.40;;;;;;10350445;28;20222;-72
2022/10/21 20:52:19;;;;;;;4.10;3.70;;;18.50;47.40;;;;;;10352454;28;20229;-72
2022/10/21 20:57:27;;;;;;;5.67;4.03;;;18.40;47.30;;;;;;10348299;28;20603;-73
2022/10/21 21:02:30;;;;;;;4.57;3.77;;;18.50;47.40;;;;;;10353913;28;20230;-72
2022/10/21 21:07:33;;;;;;;3.40;3.10;;;18.40;47.30;;;;;;10353720;28;20233;-72
2022/10/21 21:12:38;;;;;;;3.87;3.20;;;18.40;47.30;;;;;;10343815;28;162535;-72
2022/10/21 21:17:42;;;;;;;3.40;3.10;;;18.30;47.20;;;;;;10360200;28;20245;-72
2022/10/21 21:22:45;;;;;;;5.47;3.43;;;18.30;47.20;;;;;;10355191;28;20245;-73
2022/10/21 21:27:50;;;;;;;3.30;3.00;;;18.30;47.30;;;;;;10355529;28;20321;-72
2022/10/21 21:32:53;;;;;;;4.63;3.23;;;18.20;47.20;;;;;;10362186;28;20268;-72
2022/10/21 21:37:56;;;;;;;2.70;2.50;;;18.20;47.20;;;;;;10354738;28;20272;-72
2022/10/21 21:43:01;;;;;;;2.93;2.63;;;18.10;47.10;;;;;;10352328;28;20238;-72
2022/10/21 21:48:04;;;;;;;3.60;2.93;;;18.00;47.00;;;;;;10350498;28;20714;-72
2022/10/21 21:53:10;;;;;;;4.30;2.83;;;18.00;47.00;;;;;;10357275;28;20269;-72
2022/10/21 21:58:14;;;;;;;3.70;3.20;;;17.90;46.90;;;;;;10350360;28;20226;-72
2022/10/21 22:03:18;;;;;;;3.40;3.07;;;17.90;46.90;;;;;;10344873;28;20630;-72
2022/10/21 22:08:23;;;;;;;3.23;3.00;;;17.80;46.80;;;;;;10347633;28;20234;-72
2022/10/21 22:13:28;;;;;;;4.60;4.20;;;17.80;46.80;;;;;;10365072;28;20234;-72
2022/10/21 22:18:31;;;;;;;5.60;4.10;;;17.70;46.70;;;;;;10374784;28;20229;-72
2022/10/21 22:23:35;;;;;;;4.40;3.73;;;17.70;46.70;;;;;;10367036;28;20238;-72
2022/10/21 22:28:39;;;;;;;5.87;3.63;;;17.70;47.00;;;;;;10366806;28;20284;-72
2022/10/21 22:33:43;;;;;;;4.10;3.67;;;17.70;47.30;;;;;;10360342;28;20738;-72
2022/10/21 22:38:46;;;;;;;4.90;3.90;;;17.70;47.20;;;;;;10356612;28;20227;-73
2022/10/21 22:43:50;;;;;;;5.80;4.17;;;17.70;47.20;;;;;;10367558;28;20226;-73
2022/10/21 22:48:54;;;;;;;6.73;3.60;;;17.70;47.50;;;;;;10359990;28;20613;-72
2022/10/21 22:53:57;;;;;;;7.33;3.70;;;17.70;47.40;;;;;;10358591;28;20234;-72
2022/10/21 22:59:01;;;;;;;4.77;4.23;;;17.70;47.30;;;;;;10359092;28;20712;-72
2022/10/21 23:04:05;;;;;;;4.73;3.63;;;17.70;47.60;;;;;;10349031;28;20755;-72
2022/10/21 23:09:08;;;;;;;3.57;3.27;;;17.70;47.60;;;;;;10346189;28;20230;-72
2022/10/21 23:14:13;;;;;;;7.17;3.50;;;17.70;47.60;;;;;;10360878;28;20234;-72
2022/10/21 23:19:16;;;;;;;3.67;3.37;;;17.70;47.80;;;;;;10370120;28;20234;-72
2022/10/21 23:24:19;;;;;;;5.03;3.40;;;17.70;47.70;;;;;;10365045;28;20317;-72
2022/10/21 23:29:23;;;;;;;4.07;3.63;;;17.70;47.70;;;;;;10362894;28;20292;-72
2022/10/21 23:34:26;;;;;;;4.97;3.80;;;17.70;48.00;;;;;;10371674;28;20233;-72
2022/10/21 23:39:29;;;;;;;4.20;3.70;;;17.70;47.50;;;;;;10366887;28;20230;-72
2022/10/21 23:44:34;;;;;;;3.40;3.10;;;17.70;47.50;;;;;;10378307;28;20230;-72
2022/10/21 23:49:37;;;;;;;3.90;2.83;;;17.70;47.70;;;;;;10367508;28;20296;-72
2022/10/21 23:54:40;;;;;;;4.03;3.13;;;17.60;47.40;;;;;;10356723;23;20230;-73
2022/10/21 23:59:45;;;;;;;2.87;2.60;;;17.60;47.50;;;;;;10323858;28;20234;-73
